createdAt,value
2022-08-14T00:02:01.480Z,25.58
2022-08-14T00:04:34.694Z,25.88
2022-08-14T00:07:13.895Z,27.52
2022-08-14T00:10:02.287Z,28.63
2022-08-14T00:12:33.156Z,26.63
2022-08-14T00:15:09.735Z,23.95
2022-08-14T00:17:47.231Z,26.67
2022-08-14T00:20:24.179Z,24.63
2022-08-14T00:23:08.400Z,26.27
2022-08-14T00:25:43.194Z,26.95
2022-08-14T00:28:32.457Z,26.60
2022-08-14T00:31:01.161Z,27.48
2022-08-14T00:33:50.572Z,24.90
2022-08-14T00:36:36.430Z,26.13
2022-08-14T00:39:09.542Z,25.17
2022-08-14T00:41:39.374Z,24.95
2022-08-14T00:44:10.598Z,26.88
2022-08-14T00:46:39.157Z,26.88
2022-08-14T00:49:08.185Z,26.80
2022-08-14T00:51:41.015Z,25.83
2022-08-14T00:54:17.082Z,28.45
2022-08-14T00:56:50.421Z,26.70
2022-08-14T00:59:18.582Z,27.52
2022-08-14T01:01:48.677Z,26.27
2022-08-14T01:04:51.966Z,26.83
2022-08-14T01:07:08.144Z,26.60
2022-08-14T01:09:39.336Z,25.23
2022-08-14T01:12:08.498Z,25.70
2022-08-14T01:14:36.781Z,25.58
2022-08-14T01:17:05.744Z,25.25
2022-08-14T01:20:09.714Z,25.88
2022-08-14T01:22:57.559Z,25.02
2022-08-14T01:25:25.752Z,23.50
2022-08-14T01:27:58.785Z,25.13
2022-08-14T01:30:28.627Z,26.05
2022-08-14T01:32:56.853Z,24.25
2022-08-14T01:36:03.672Z,22.27
2022-08-14T01:38:18.216Z,22.98
2022-08-14T01:40:50.209Z,24.25
2022-08-14T01:43:21.827Z,25.63
2022-08-14T01:45:57.891Z,25.70
2022-08-14T01:48:37.164Z,25.17
2022-08-14T01:51:19.246Z,26.42
2022-08-14T01:53:55.317Z,25.35
2022-08-14T01:56:37.487Z,24.63
2022-08-14T01:59:09.575Z,24.73
2022-08-14T02:01:41.924Z,27.10
2022-08-14T02:04:40.639Z,23.83
2022-08-14T02:07:15.624Z,23.10
2022-08-14T02:09:45.553Z,27.20
2022-08-14T02:12:26.621Z,25.27
2022-08-14T02:15:00.751Z,26.05
2022-08-14T02:17:31.010Z,23.42
2022-08-14T02:19:59.867Z,25.67
2022-08-14T02:22:33.212Z,24.23
2022-08-14T02:25:03.104Z,25.10
2022-08-14T02:28:25.236Z,23.40
2022-08-14T02:30:19.281Z,23.27
2022-08-14T02:32:47.936Z,25.95
2022-08-14T02:35:19.124Z,21.23
2022-08-14T02:37:51.102Z,23.00
2022-08-14T02:40:32.304Z,24.70
2022-08-14T02:43:02.840Z,22.90
2022-08-14T02:45:38.604Z,23.65
2022-08-14T02:49:04.145Z,22.48
2022-08-14T02:51:07.220Z,22.58
2022-08-14T02:53:42.235Z,23.48
2022-08-14T02:56:30.514Z,22.45
2022-08-14T02:59:05.413Z,20.60
2022-08-14T03:01:43.271Z,22.65
2022-08-14T03:04:12.339Z,20.65
2022-08-14T03:06:57.756Z,21.70
2022-08-14T03:10:25.066Z,22.05
2022-08-14T03:12:31.889Z,23.67
2022-08-14T03:15:03.738Z,22.38
2022-08-14T03:17:56.298Z,22.65
2022-08-14T03:20:22.551Z,24.55
2022-08-14T03:22:52.641Z,23.38
2022-08-14T03:25:22.164Z,21.20
2022-08-14T03:27:58.478Z,21.33
2022-08-14T03:30:38.819Z,21.33
2022-08-14T03:33:10.628Z,21.58
2022-08-14T03:36:00.306Z,21.13
2022-08-14T03:39:13.993Z,21.38
2022-08-14T03:41:20.305Z,21.15
2022-08-14T03:43:57.422Z,23.08
2022-08-14T03:46:51.829Z,20.75
2022-08-14T03:49:24.297Z,21.83
2022-08-14T03:51:57.484Z,21.48
2022-08-14T03:54:26.161Z,23.20
2022-08-14T03:56:55.002Z,21.05
2022-08-14T03:59:24.614Z,24.27
2022-08-14T04:02:01.185Z,20.15
2022-08-14T04:04:30.791Z,22.08
2022-08-14T04:07:00.166Z,23.02
2022-08-14T04:09:29.371Z,22.02
2022-08-14T04:11:59.650Z,22.10
2022-08-14T04:14:30.160Z,22.50
2022-08-14T04:16:58.426Z,22.38
2022-08-14T04:19:28.098Z,21.55
2022-08-14T04:22:03.554Z,21.80
2022-08-14T04:24:38.502Z,21.40
2022-08-14T04:27:09.985Z,22.38
2022-08-14T04:29:42.630Z,23.70
2022-08-14T04:33:00.365Z,20.77
2022-08-14T04:35:07.804Z,21.85
2022-08-14T04:37:56.569Z,23.02
2022-08-14T04:40:42.222Z,22.58
2022-08-14T04:43:38.167Z,21.90
2022-08-14T04:46:54.715Z,23.83
2022-08-14T04:49:00.047Z,21.65
2022-08-14T04:51:30.023Z,21.13
2022-08-14T04:54:05.663Z,20.88
2022-08-14T04:56:34.805Z,22.20
2022-08-14T04:59:09.689Z,21.85
2022-08-14T05:01:48.819Z,20.60
2022-08-14T05:04:21.239Z,24.88
2022-08-14T05:06:54.015Z,20.63
2022-08-14T05:09:23.672Z,23.48
2022-08-14T05:11:53.102Z,20.90
2022-08-14T05:14:45.826Z,20.73
2022-08-14T05:17:13.546Z,21.17
2022-08-14T05:19:44.916Z,22.10
2022-08-14T05:22:30.640Z,21.25
2022-08-14T05:24:59.279Z,21.52
2022-08-14T05:27:30.891Z,21.73
2022-08-14T05:29:59.782Z,23.13
2022-08-14T05:32:29.684Z,21.98
2022-08-14T05:34:59.314Z,21.00
2022-08-14T05:37:29.908Z,24.83
2022-08-14T05:40:00.896Z,24.40
2022-08-14T05:42:32.107Z,22.15
2022-08-14T05:45:03.957Z,22.58
2022-08-14T05:47:39.295Z,23.80
2022-08-14T05:50:18.502Z,24.88
2022-08-14T05:52:49.321Z,24.45
2022-08-14T05:55:22.155Z,23.23
2022-08-14T05:57:53.499Z,24.13
2022-08-14T06:00:29.972Z,24.02
2022-08-14T06:03:04.218Z,22.80
2022-08-14T06:05:38.612Z,22.33
2022-08-14T06:08:08.813Z,22.75
2022-08-14T06:10:57.352Z,25.90
2022-08-14T06:13:31.626Z,27.15
2022-08-14T06:16:09.773Z,25.30
2022-08-14T06:18:41.549Z,23.65
2022-08-14T06:21:13.488Z,25.70
2022-08-14T06:23:42.042Z,24.70
2022-08-14T06:26:11.190Z,25.45
2022-08-14T06:28:40.476Z,27.25
2022-08-14T06:31:13.677Z,24.90
2022-08-14T06:35:03.349Z,25.70
2022-08-14T06:36:31.837Z,25.08
2022-08-14T06:39:00.039Z,27.27
2022-08-14T06:41:35.903Z,27.42
2022-08-14T06:44:17.139Z,26.67
2022-08-14T06:46:49.410Z,26.70
2022-08-14T06:49:19.044Z,26.60
2022-08-14T06:51:47.231Z,29.48
2022-08-14T06:54:18.298Z,29.00
2022-08-14T06:56:54.130Z,25.73
2022-08-14T06:59:22.666Z,25.05
2022-08-14T07:02:13.509Z,26.27
2022-08-14T07:05:05.289Z,28.35
2022-08-14T07:07:39.206Z,26.63
2022-08-14T07:10:16.710Z,27.42
2022-08-14T07:13:01.051Z,29.05
2022-08-14T07:15:32.348Z,27.75
2022-08-14T07:18:02.447Z,30.27
2022-08-14T07:20:33.239Z,28.83
2022-08-14T07:23:07.986Z,26.52
2022-08-14T07:25:37.960Z,31.30
2022-08-14T07:28:12.777Z,29.67
2022-08-14T07:30:50.874Z,28.27
2022-08-14T07:33:29.294Z,30.70
2022-08-14T07:36:02.135Z,31.25
2022-08-14T07:38:37.432Z,34.17
2022-08-14T07:41:14.526Z,32.55
2022-08-14T07:43:47.371Z,32.17
2022-08-14T07:46:29.538Z,29.63
2022-08-14T07:49:00.007Z,32.05
2022-08-14T07:51:33.980Z,29.02
2022-08-14T07:54:04.333Z,30.10
2022-08-14T07:56:48.049Z,32.92
2022-08-14T07:59:18.280Z,31.13
2022-08-14T08:01:51.184Z,30.35
2022-08-14T08:04:24.233Z,34.42
2022-08-14T08:06:54.970Z,35.03
2022-08-14T08:09:32.333Z,35.05
2022-08-14T08:12:04.765Z,35.42
2022-08-14T08:14:55.690Z,35.65
2022-08-14T08:17:24.885Z,36.45
2022-08-14T08:19:53.400Z,34.38
2022-08-14T08:22:23.786Z,36.03
2022-08-14T08:24:55.895Z,37.10
2022-08-14T08:27:26.192Z,36.83
2022-08-14T08:30:10.120Z,40.80
2022-08-14T08:32:41.772Z,34.72
2022-08-14T08:35:18.495Z,39.08
2022-08-14T08:37:48.648Z,40.30
2022-08-14T08:40:32.424Z,38.13
2022-08-14T08:43:01.350Z,38.50
2022-08-14T08:45:30.716Z,41.60
2022-08-14T08:47:59.145Z,40.88
2022-08-14T08:53:02.389Z,40.00
2022-08-14T08:55:35.007Z,43.13
2022-08-14T08:58:15.972Z,42.85
2022-08-14T09:00:48.771Z,43.58
2022-08-14T09:03:21.552Z,41.65
2022-08-14T09:05:54.428Z,42.13
2022-08-14T09:08:31.917Z,41.47
2022-08-14T09:11:19.325Z,43.17
2022-08-14T09:13:51.667Z,42.83
2022-08-14T09:16:23.662Z,45.20
2022-08-14T09:18:53.962Z,46.97
2022-08-14T09:21:24.874Z,48.63
2022-08-14T09:24:28.183Z,48.60
2022-08-14T09:26:48.876Z,49.92
2022-08-14T09:29:17.955Z,46.13
2022-08-14T09:31:53.353Z,46.63
2022-08-14T09:34:32.075Z,49.42
2022-08-14T09:37:17.101Z,44.92
2022-08-14T09:39:58.590Z,46.35
2022-08-14T09:42:50.237Z,50.53
2022-08-14T09:45:20.932Z,47.60
2022-08-14T09:47:51.973Z,46.90
2022-08-14T09:50:26.854Z,44.47
2022-08-14T09:52:58.871Z,45.08
2022-08-14T09:55:36.792Z,46.90
2022-08-14T09:58:19.188Z,44.00
2022-08-14T10:00:54.014Z,46.97
2022-08-14T10:03:34.592Z,43.17
2022-08-14T10:06:09.831Z,46.13
2022-08-14T10:08:51.572Z,45.72
2022-08-14T10:11:24.118Z,49.78
2022-08-14T10:13:56.057Z,46.95
2022-08-14T10:16:27.297Z,43.28
2022-08-14T10:19:09.309Z,47.53
2022-08-14T10:23:11.229Z,45.25
2022-08-14T10:24:37.155Z,43.83
2022-08-14T10:27:18.362Z,44.97
2022-08-14T10:29:51.645Z,43.05
2022-08-14T10:32:28.765Z,47.17
2022-08-14T10:35:10.917Z,45.92
2022-08-14T10:37:46.446Z,44.05
2022-08-14T10:40:37.961Z,45.35
2022-08-14T10:43:18.115Z,45.78
2022-08-14T10:46:03.346Z,45.17
2022-08-14T10:48:56.337Z,40.05
2022-08-14T10:51:26.722Z,40.25
2022-08-14T10:54:01.923Z,48.13
2022-08-14T10:56:45.573Z,39.53
2022-08-14T10:59:15.673Z,43.38
2022-08-14T11:01:45.294Z,47.40
2022-08-14T11:04:30.200Z,40.95
2022-08-14T11:06:59.750Z,47.67
2022-08-14T11:09:31.816Z,44.67
2022-08-14T11:12:36.614Z,44.05
2022-08-14T11:15:01.776Z,41.10
2022-08-14T11:17:32.340Z,41.90
2022-08-14T11:20:02.722Z,43.63
2022-08-14T11:22:55.745Z,36.50
2022-08-14T11:25:23.716Z,47.60
2022-08-14T11:27:53.574Z,45.90
2022-08-14T11:30:49.922Z,44.08
2022-08-14T11:33:16.399Z,45.70
2022-08-14T11:35:49.766Z,44.03
2022-08-14T11:38:21.468Z,49.10
2022-08-14T11:40:49.815Z,44.03
2022-08-14T11:43:29.185Z,48.05
2022-08-14T11:46:03.596Z,47.55
2022-08-14T11:49:01.676Z,47.10
2022-08-14T11:51:30.670Z,46.08
2022-08-14T11:54:06.256Z,47.58
2022-08-14T11:56:39.658Z,45.85
2022-08-14T11:59:10.956Z,48.08
2022-08-14T12:01:41.126Z,44.72
2022-08-14T12:04:32.051Z,49.67
2022-08-14T12:07:01.287Z,44.85
2022-08-14T12:09:31.266Z,45.55
2022-08-14T12:12:00.628Z,45.30
2022-08-14T12:14:35.651Z,45.38
2022-08-14T12:17:12.996Z,49.05
2022-08-14T12:19:50.890Z,45.13
2022-08-14T12:22:29.488Z,48.47
2022-08-14T12:24:58.901Z,46.60
2022-08-14T12:27:46.693Z,50.67
2022-08-14T12:30:39.585Z,48.72
2022-08-14T12:33:31.112Z,44.42
2022-08-14T12:36:04.501Z,46.45
2022-08-14T12:38:38.320Z,47.13
2022-08-14T12:41:20.347Z,44.45
2022-08-14T12:43:53.767Z,44.63
2022-08-14T12:46:27.559Z,44.95
2022-08-14T12:49:02.368Z,50.08
2022-08-14T12:51:31.671Z,45.97
2022-08-14T12:54:01.168Z,44.47
2022-08-14T12:56:33.937Z,42.20
2022-08-14T12:59:04.745Z,43.83
2022-08-14T13:01:56.706Z,40.00
2022-08-14T13:04:25.547Z,46.08
2022-08-14T13:06:54.634Z,48.03
2022-08-14T13:09:36.344Z,44.83
2022-08-14T13:12:33.390Z,46.15
2022-08-14T13:14:59.270Z,49.13
2022-08-14T13:17:37.968Z,44.88
2022-08-14T13:20:23.099Z,46.90
2022-08-14T13:22:56.215Z,46.60
2022-08-14T13:25:29.531Z,49.17
2022-08-14T13:28:00.232Z,49.00
2022-08-14T13:30:29.195Z,48.45
2022-08-14T13:33:00.406Z,46.65
2022-08-14T13:35:30.862Z,48.10
2022-08-14T13:38:01.493Z,42.83
2022-08-14T13:40:30.320Z,49.90
2022-08-14T13:42:58.646Z,47.25
2022-08-14T13:45:59.862Z,45.83
2022-08-14T13:48:27.256Z,47.15
2022-08-14T13:51:11.007Z,46.50
2022-08-14T13:54:07.165Z,47.00
2022-08-14T13:56:40.381Z,47.28
2022-08-14T13:59:09.890Z,48.47
2022-08-14T14:01:43.505Z,45.13
2022-08-14T14:04:19.179Z,50.17
2022-08-14T14:06:52.414Z,45.75
2022-08-14T14:09:32.475Z,46.60
2022-08-14T14:12:37.832Z,49.13
2022-08-14T14:14:57.162Z,47.00
2022-08-14T14:17:29.062Z,47.10
2022-08-14T14:20:00.296Z,49.17
2022-08-14T14:22:35.791Z,46.20
2022-08-14T14:25:22.236Z,48.65
2022-08-14T14:27:53.435Z,46.53
2022-08-14T14:30:52.687Z,47.88
2022-08-14T14:33:42.234Z,48.90
2022-08-14T14:36:05.244Z,45.65
2022-08-14T14:38:35.164Z,49.28
2022-08-14T14:41:05.626Z,50.05
2022-08-14T14:43:39.036Z,52.97
2022-08-14T14:46:09.998Z,46.38
2022-08-14T14:48:46.742Z,42.97
2022-08-14T14:51:22.496Z,48.42
2022-08-14T14:53:52.457Z,48.63
2022-08-14T14:56:51.076Z,47.83
2022-08-14T14:59:13.149Z,49.53
2022-08-14T15:01:41.812Z,49.70
2022-08-14T15:04:20.782Z,49.33
2022-08-14T15:06:49.868Z,47.83
2022-08-14T15:09:20.267Z,47.17
2022-08-14T15:11:48.666Z,49.20
2022-08-14T15:14:54.545Z,45.65
2022-08-14T15:17:06.676Z,48.88
2022-08-14T15:19:35.988Z,45.60
2022-08-14T15:22:05.181Z,47.53
2022-08-14T15:24:37.309Z,49.92
2022-08-14T15:27:09.063Z,46.58
2022-08-14T15:29:43.074Z,46.92
2022-08-14T15:32:11.945Z,50.83
2022-08-14T15:34:45.167Z,49.60
2022-08-14T15:37:19.310Z,45.65
2022-08-14T15:39:49.222Z,49.38
2022-08-14T15:42:23.554Z,47.65
2022-08-14T15:44:56.951Z,45.45
2022-08-14T15:47:29.597Z,49.33
2022-08-14T15:50:00.693Z,43.40
2022-08-14T15:52:32.437Z,50.10
2022-08-14T15:55:06.739Z,52.20
2022-08-14T15:57:36.020Z,52.70
2022-08-14T16:00:43.244Z,51.78
2022-08-14T16:03:12.752Z,50.58
2022-08-14T16:05:43.873Z,46.13
2022-08-14T16:08:27.283Z,43.05
2022-08-14T16:11:00.971Z,43.95
2022-08-14T16:13:39.551Z,47.38
2022-08-14T16:16:47.433Z,45.22
2022-08-14T16:19:11.075Z,47.25
2022-08-14T16:22:02.559Z,45.53
2022-08-14T16:24:33.374Z,45.40
2022-08-14T16:27:05.152Z,49.33
2022-08-14T16:29:35.760Z,43.53
2022-08-14T16:32:33.520Z,44.85
2022-08-14T16:34:55.855Z,48.10
2022-08-14T16:37:31.918Z,45.95
2022-08-14T16:40:02.880Z,44.67
2022-08-14T16:43:02.240Z,44.13
2022-08-14T16:45:26.197Z,45.10
2022-08-14T16:47:56.046Z,47.33
2022-08-14T16:50:40.053Z,45.08
2022-08-14T16:53:17.799Z,48.90
2022-08-14T16:55:53.667Z,45.42
2022-08-14T16:58:30.067Z,45.10
2022-08-14T17:01:23.081Z,44.22
2022-08-14T17:03:56.565Z,45.83
2022-08-14T17:06:42.957Z,47.63
2022-08-14T17:09:43.605Z,44.88
2022-08-14T17:12:33.442Z,44.70
2022-08-14T17:15:10.123Z,47.47
2022-08-14T17:17:49.833Z,46.20
2022-08-14T17:20:39.699Z,42.40
2022-08-14T17:23:10.740Z,48.03
2022-08-14T17:25:40.185Z,47.58
2022-08-14T17:28:51.395Z,41.97
2022-08-14T17:31:08.957Z,46.17
2022-08-14T17:33:40.761Z,42.13
2022-08-14T17:36:21.488Z,45.35
2022-08-14T17:39:06.655Z,44.88
2022-08-14T17:41:38.771Z,46.72
2022-08-14T17:44:21.950Z,44.42
2022-08-14T17:47:05.260Z,44.15
2022-08-14T17:49:37.513Z,45.00
2022-08-14T17:52:17.485Z,47.28
2022-08-14T17:54:52.939Z,42.08
2022-08-14T17:57:28.732Z,44.75
2022-08-14T17:59:59.002Z,44.03
2022-08-14T18:02:31.824Z,45.42
2022-08-14T18:05:03.184Z,44.28
2022-08-14T18:07:59.672Z,44.33
2022-08-14T18:10:53.031Z,41.05
2022-08-14T18:13:11.023Z,46.38
2022-08-14T18:15:41.430Z,43.30
2022-08-14T18:18:12.934Z,44.97
2022-08-14T18:21:23.943Z,43.60
2022-08-14T18:23:32.777Z,41.03
2022-08-14T18:26:36.241Z,44.45
2022-08-14T18:29:00.501Z,46.95
2022-08-14T18:31:42.230Z,40.15
2022-08-14T18:34:30.645Z,40.88
2022-08-14T18:37:09.618Z,38.15
2022-08-14T18:40:01.310Z,44.10
2022-08-14T18:42:44.594Z,38.80
2022-08-14T18:45:16.096Z,43.38
2022-08-14T18:50:52.775Z,43.22
2022-08-14T18:53:24.454Z,37.40
2022-08-14T18:55:59.930Z,40.15
2022-08-14T18:58:34.435Z,36.97
2022-08-14T19:01:04.442Z,41.45
2022-08-14T19:03:55.144Z,38.83
2022-08-14T19:06:56.355Z,37.72
2022-08-14T19:09:54.590Z,39.63
2022-08-14T19:12:56.676Z,38.78
2022-08-14T19:15:27.555Z,39.20
2022-08-14T19:18:13.831Z,39.00
2022-08-14T19:20:52.582Z,38.33
2022-08-14T19:23:41.992Z,40.15
2022-08-14T19:26:36.894Z,35.28
2022-08-14T19:29:37.581Z,34.67
2022-08-14T19:32:39.367Z,37.05
2022-08-14T19:35:48.630Z,35.75
2022-08-14T19:38:59.315Z,34.85
2022-08-14T19:41:30.224Z,34.03
2022-08-14T19:44:10.552Z,37.30
2022-08-14T19:47:01.486Z,32.25
2022-08-14T19:50:08.168Z,32.30
2022-08-14T19:52:23.042Z,35.50
2022-08-14T19:54:53.767Z,34.03
2022-08-14T19:57:23.878Z,31.60
2022-08-14T20:00:04.654Z,35.90
2022-08-14T20:02:37.663Z,33.22
2022-08-14T20:05:08.145Z,36.35
2022-08-14T20:08:40.378Z,32.25
2022-08-14T20:11:05.758Z,33.70
2022-08-14T20:13:32.209Z,30.05
2022-08-14T20:16:12.168Z,30.70
2022-08-14T20:18:51.792Z,31.40
2022-08-14T20:21:23.940Z,36.05
2022-08-14T20:24:31.061Z,31.55
2022-08-14T20:27:33.274Z,32.00
2022-08-14T20:30:29.473Z,30.10
2022-08-14T20:33:01.358Z,30.95
2022-08-14T20:35:35.827Z,36.28
2022-08-14T20:38:31.006Z,32.25
2022-08-14T20:40:57.837Z,30.33
2022-08-14T20:43:46.918Z,33.85
2022-08-14T20:46:17.269Z,31.90
2022-08-14T20:49:00.267Z,29.13
2022-08-14T20:51:47.716Z,30.90
2022-08-14T20:54:34.673Z,28.55
2022-08-14T20:57:10.075Z,30.63
2022-08-14T20:59:43.382Z,31.40
2022-08-14T21:02:38.748Z,30.67
2022-08-14T21:05:22.477Z,28.38
2022-08-14T21:08:09.766Z,29.20
2022-08-14T21:10:53.204Z,31.63
2022-08-14T21:14:08.602Z,27.52
2022-08-14T21:16:25.953Z,30.02
2022-08-14T21:19:03.953Z,29.27
2022-08-14T21:21:40.608Z,29.60
2022-08-14T21:24:10.015Z,32.60
2022-08-14T21:27:04.486Z,31.95
2022-08-14T21:29:56.124Z,31.90
2022-08-14T21:32:47.187Z,30.60
2022-08-14T21:35:22.782Z,30.70
2022-08-14T21:37:52.223Z,31.17
2022-08-14T21:40:41.464Z,28.98
2022-08-14T21:43:17.989Z,27.88
2022-08-14T21:45:53.660Z,29.23
2022-08-14T21:48:25.293Z,26.65
2022-08-14T21:51:01.594Z,29.67
2022-08-14T21:53:58.972Z,28.05
2022-08-14T21:56:38.974Z,26.98
2022-08-14T21:59:17.713Z,28.05
2022-08-14T22:02:01.195Z,27.55
2022-08-14T22:04:40.417Z,30.85
2022-08-14T22:07:16.857Z,26.48
2022-08-14T22:09:45.637Z,25.13
2022-08-14T22:12:45.459Z,28.65
2022-08-14T22:15:15.922Z,27.55
2022-08-14T22:17:44.765Z,29.95
2022-08-14T22:20:21.577Z,29.02
2022-08-14T22:22:56.061Z,25.77
2022-08-14T22:25:33.437Z,25.92
2022-08-14T22:28:04.465Z,24.98
2022-08-14T22:30:33.084Z,27.85
2022-08-14T22:33:01.747Z,28.33
2022-08-14T22:35:31.248Z,24.58
2022-08-14T22:38:36.383Z,24.08
2022-08-14T22:41:25.408Z,25.90
2022-08-14T22:43:39.916Z,24.65
2022-08-14T22:46:15.108Z,24.38
2022-08-14T22:48:51.255Z,26.48
2022-08-14T22:51:22.981Z,28.52
2022-08-14T22:53:54.953Z,24.50
2022-08-14T22:56:29.489Z,26.40
2022-08-14T22:59:00.283Z,26.67
2022-08-14T23:01:55.491Z,27.77
2022-08-14T23:04:35.823Z,28.52
2022-08-14T23:07:22.338Z,23.80
2022-08-14T23:09:56.464Z,27.02
2022-08-14T23:12:31.677Z,24.65
2022-08-14T23:15:03.979Z,24.63
2022-08-14T23:17:39.159Z,28.00
2022-08-14T23:20:19.231Z,27.80
2022-08-14T23:22:51.406Z,27.38
2022-08-14T23:25:57.159Z,26.85
2022-08-14T23:28:34.989Z,24.42
2022-08-14T23:31:06.116Z,26.58
2022-08-14T23:33:41.935Z,27.02
2022-08-14T23:36:28.364Z,25.45
2022-08-14T23:39:02.026Z,25.67
2022-08-14T23:41:46.204Z,26.27
2022-08-14T23:44:23.505Z,29.17
2022-08-14T23:47:00.512Z,26.58
2022-08-14T23:49:57.055Z,26.88
2022-08-14T23:53:05.921Z,29.10
2022-08-14T23:55:11.673Z,27.80
2022-08-14T23:57:44.158Z,25.52
